Time;durP1;ratioP1;P1;durP2;ratioP2;P2;SDS_P1;SDS_P2;PMS_P1;PMS_P2;Temp;Humidity;BMP_temperature;BMP_pressure;BME280_temperature;BME280_humidity;BME280_pressure;Samples;Min_cycle;Max_cycle;Signal;HPM_P1;HPM_P2
2024/01/15 06:29:15;;;;;;;4.35;2.35;;;4.70;99.90;;;;;;6220198;23;20051;-68
2024/01/15 06:32:01;;;;;;;6.07;1.98;;;4.80;99.90;;;;;;6241659;23;20364;-68
2024/01/15 06:34:47;;;;;;;7.25;3.15;;;4.70;99.90;;;;;;6239682;23;20008;-68
2024/01/15 06:37:32;;;;;;;5.00;2.30;;;4.80;99.90;;;;;;6239074;23;20047;-68
2024/01/15 06:40:18;;;;;;;6.85;2.58;;;4.80;99.90;;;;;;6240289;23;20493;-68
2024/01/15 06:43:04;;;;;;;5.68;2.40;;;4.80;99.90;;;;;;6241192;23;20012;-68
2024/01/15 06:45:50;;;;;;;6.53;2.20;;;4.80;99.90;;;;;;6241828;23;20005;-67
2024/01/15 06:48:36;;;;;;;5.18;2.28;;;4.80;99.90;;;;;;6241369;23;20463;-68
2024/01/15 06:51:22;;;;;;;4.80;2.25;;;4.90;99.90;;;;;;6240243;23;20015;-68
2024/01/15 06:54:08;;;;;;;10.10;3.45;;;4.90;99.90;;;;;;6239036;23;20020;-67
2024/01/15 06:56:55;;;;;;;4.07;2.05;;;4.90;99.90;;;;;;6237674;23;20008;-67
2024/01/15 06:59:41;;;;;;;4.45;2.40;;;4.90;99.90;;;;;;6240290;23;20035;-68
2024/01/15 07:02:26;;;;;;;8.32;2.03;;;5.00;99.90;;;;;;6240405;23;20012;-67
2024/01/15 07:05:12;;;;;;;7.65;2.83;;;5.00;99.90;;;;;;6241949;23;20326;-68
2024/01/15 07:07:59;;;;;;;6.95;2.50;;;5.00;99.90;;;;;;6241173;23;20020;-68
2024/01/15 07:10:44;;;;;;;8.82;2.78;;;5.00;99.90;;;;;;6240279;23;20392;-67
2024/01/15 07:13:31;;;;;;;4.10;1.90;;;5.10;99.90;;;;;;6240123;23;20008;-67
2024/01/15 07:16:17;;;;;;;7.18;3.13;;;5.10;99.90;;;;;;6240383;23;20121;-67
2024/01/15 07:19:02;;;;;;;8.18;2.50;;;5.10;99.90;;;;;;6239534;23;20016;-69
2024/01/15 07:21:49;;;;;;;7.47;1.80;;;5.10;99.90;;;;;;6239564;23;20059;-69
2024/01/15 07:24:35;;;;;;;5.85;2.00;;;5.10;99.90;;;;;;6237685;23;20066;-71
2024/01/15 07:27:21;;;;;;;5.85;2.10;;;5.10;99.90;;;;;;6240110;23;20099;-71
2024/01/15 07:30:07;;;;;;;5.68;2.03;;;5.10;99.90;;;;;;6239683;23;20103;-71
2024/01/15 07:32:53;;;;;;;5.30;2.33;;;5.20;99.90;;;;;;6239944;23;20004;-71
2024/01/15 07:35:39;;;;;;;4.53;1.73;;;5.20;99.90;;;;;;6250906;23;20019;-71
2024/01/15 07:38:25;;;;;;;5.55;2.58;;;5.20;99.90;;;;;;6246709;23;20008;-70
2024/01/15 07:41:11;;;;;;;5.57;2.15;;;5.20;99.80;;;;;;6253937;23;20247;-70
2024/01/15 07:43:57;;;;;;;8.10;2.70;;;5.20;99.80;;;;;;6247973;23;20004;-71
2024/01/15 07:46:47;;;;;;;8.80;3.08;;;5.20;99.80;;;;;;6242675;23;20016;-72
2024/01/15 07:49:33;;;;;;;5.32;2.53;;;5.30;99.80;;;;;;6242090;23;20087;-73
2024/01/15 07:52:19;;;;;;;7.03;2.17;;;5.30;99.90;;;;;;6239910;23;20015;-73
2024/01/15 07:55:05;;;;;;;15.40;2.85;;;5.30;99.70;;;;;;6239441;23;20074;-72
2024/01/15 07:57:53;;;;;;;7.20;2.20;;;5.30;99.70;;;;;;6240715;23;20216;-74
2024/01/15 08:00:39;;;;;;;3.67;1.83;;;5.40;99.70;;;;;;6241631;23;20036;-73
2024/01/15 08:03:25;;;;;;;8.70;2.35;;;5.40;99.70;;;;;;6241690;23;20015;-72
2024/01/15 08:06:11;;;;;;;7.35;2.60;;;5.40;99.60;;;;;;6241985;23;20330;-71
2024/01/15 08:08:57;;;;;;;5.90;2.45;;;5.50;99.70;;;;;;6241081;23;20020;-72
2024/01/15 08:11:43;;;;;;;7.72;2.95;;;5.50;99.70;;;;;;6241372;23;20023;-72
2024/01/15 08:14:29;;;;;;;7.25;2.50;;;5.50;99.50;;;;;;6238567;23;20070;-71
2024/01/15 08:17:16;;;;;;;4.82;2.15;;;5.50;99.40;;;;;;6240723;23;20043;-72
2024/01/15 08:20:02;;;;;;;4.82;2.13;;;5.50;99.50;;;;;;6241445;23;20016;-72
2024/01/15 08:22:48;;;;;;;7.88;2.33;;;5.60;99.50;;;;;;6220172;23;20012;-72
2024/01/15 08:25:34;;;;;;;12.85;3.35;;;5.60;99.40;;;;;;6241971;23;20008;-72
2024/01/15 08:28:20;;;;;;;7.13;2.67;;;5.60;99.40;;;;;;6240303;23;20024;-73
2024/01/15 08:31:06;;;;;;;6.88;1.83;;;5.60;99.30;;;;;;6242029;23;20361;-72
2024/01/15 08:33:52;;;;;;;5.25;1.98;;;5.60;99.30;;;;;;6218983;23;20087;-72
2024/01/15 08:36:38;;;;;;;5.22;2.00;;;5.60;99.30;;;;;;6241281;23;20050;-73
2024/01/15 08:39:24;;;;;;;8.50;2.65;;;5.60;99.20;;;;;;6241698;23;20395;-73
2024/01/15 08:42:11;;;;;;;8.07;2.78;;;5.60;99.20;;;;;;6240947;23;20345;-72
2024/01/15 08:44:57;;;;;;;5.78;2.13;;;5.70;99.20;;;;;;6238337;23;20018;-70
2024/01/15 08:47:43;;;;;;;5.85;2.47;;;5.70;99.20;;;;;;6240821;23;20078;-72
2024/01/15 08:50:29;;;;;;;8.43;3.05;;;5.70;99.10;;;;;;6240381;23;20019;-72
2024/01/15 08:53:15;;;;;;;5.07;2.03;;;5.70;99.10;;;;;;6240866;23;20012;-72
2024/01/15 08:56:01;;;;;;;7.22;2.35;;;5.70;99.10;;;;;;6240202;23;20563;-72
2024/01/15 08:58:47;;;;;;;5.95;2.47;;;5.70;99.10;;;;;;6240892;23;20444;-71
2024/01/15 09:01:34;;;;;;;6.13;2.15;;;5.70;99.00;;;;;;6241509;23;20341;-73
2024/01/15 09:04:20;;;;;;;7.35;3.25;;;5.70;99.00;;;;;;6239866;23;20012;-73
2024/01/15 09:07:06;;;;;;;4.57;2.00;;;5.70;99.00;;;;;;6233333;23;20016;-71
2024/01/15 09:09:51;;;;;;;6.75;3.08;;;5.70;99.00;;;;;;6240217;23;20008;-71
2024/01/15 09:12:38;;;;;;;6.45;2.85;;;5.70;98.90;;;;;;6242285;23;20012;-72
2024/01/15 09:15:24;;;;;;;4.70;1.83;;;5.70;98.90;;;;;;6242932;23;20004;-72
2024/01/15 09:18:11;;;;;;;8.68;2.50;;;5.70;99.00;;;;;;6240375;23;20012;-71
2024/01/15 09:20:56;;;;;;;5.82;2.22;;;5.70;98.90;;;;;;6239850;23;20036;-72
2024/01/15 09:23:43;;;;;;;6.45;2.10;;;5.80;98.90;;;;;;6238354;23;20091;-72
2024/01/15 09:26:28;;;;;;;6.05;2.05;;;5.70;98.90;;;;;;6241875;23;20330;-72
2024/01/15 09:29:15;;;;;;;4.25;2.08;;;5.70;98.90;;;;;;6239876;23;20122;-72
2024/01/15 09:32:03;;;;;;;6.03;2.92;;;5.70;98.90;;;;;;6218331;23;20008;-72
2024/01/15 09:34:49;;;;;;;7.78;2.83;;;5.80;98.90;;;;;;6240412;23;20008;-72
2024/01/15 09:37:35;;;;;;;6.15;2.35;;;5.80;98.80;;;;;;6219712;23;20004;-72
2024/01/15 09:40:21;;;;;;;6.63;2.55;;;5.80;98.80;;;;;;6220984;23;20020;-72
2024/01/15 09:43:07;;;;;;;4.72;2.35;;;5.80;98.80;;;;;;6241935;23;20039;-71
2024/01/15 09:45:54;;;;;;;8.25;2.13;;;5.80;98.70;;;;;;6241542;23;20345;-72
2024/01/15 09:48:40;;;;;;;6.65;2.33;;;5.90;98.70;;;;;;6238978;23;20047;-72
2024/01/15 09:51:27;;;;;;;5.45;2.20;;;5.90;98.70;;;;;;6240824;23;20059;-72
2024/01/15 09:54:15;;;;;;;5.97;2.20;;;5.90;98.70;;;;;;6241618;23;20087;-72
2024/01/15 09:57:01;;;;;;;4.85;1.90;;;5.90;98.60;;;;;;6242619;23;20167;-72
2024/01/15 09:59:48;;;;;;;4.47;2.30;;;5.90;98.60;;;;;;6240427;23;20046;-72
2024/01/15 10:02:35;;;;;;;7.72;2.67;;;5.90;98.60;;;;;;6239976;23;20011;-72
2024/01/15 10:05:21;;;;;;;9.20;2.67;;;6.00;98.70;;;;;;6236693;23;20087;-71
2024/01/15 10:08:07;;;;;;;5.43;1.90;;;6.00;98.50;;;;;;6242145;23;20058;-71
2024/01/15 10:10:53;;;;;;;4.68;2.22;;;6.00;98.60;;;;;;6239914;23;20087;-72
2024/01/15 10:13:39;;;;;;;4.13;1.63;;;6.00;98.60;;;;;;6240060;23;20016;-73
2024/01/15 10:16:26;;;;;;;4.60;1.90;;;6.00;98.50;;;;;;6242429;23;20441;-72
2024/01/15 10:19:12;;;;;;;4.32;2.40;;;6.00;98.50;;;;;;6240474;23;20012;-72
2024/01/15 10:21:58;;;;;;;5.00;2.08;;;6.10;98.60;;;;;;6241145;23;20012;-71
2024/01/15 10:24:44;;;;;;;5.28;2.50;;;6.20;98.50;;;;;;6240815;23;20452;-71
2024/01/15 10:27:29;;;;;;;5.57;2.25;;;6.10;98.50;;;;;;6241945;23;20081;-71
2024/01/15 10:30:16;;;;;;;4.07;2.08;;;6.20;98.50;;;;;;6240518;23;20012;-72
2024/01/15 10:33:04;;;;;;;4.88;1.77;;;6.20;98.40;;;;;;6239138;23;20027;-73
2024/01/15 10:35:49;;;;;;;5.15;1.95;;;6.20;98.40;;;;;;6242643;23;20010;-72
2024/01/15 10:38:36;;;;;;;5.50;2.25;;;6.20;98.30;;;;;;6241167;23;20083;-61
2024/01/15 10:41:22;;;;;;;6.40;1.70;;;6.20;98.20;;;;;;6240525;23;20000;-60
2024/01/15 10:44:08;;;;;;;7.60;2.45;;;6.20;98.30;;;;;;6240076;23;20472;-61
2024/01/15 10:46:56;;;;;;;5.20;1.52;;;6.20;98.10;;;;;;6240379;23;20070;-61
2024/01/15 10:49:42;;;;;;;2.95;2.03;;;6.20;98.10;;;;;;6242076;23;20437;-61
2024/01/15 10:52:29;;;;;;;4.30;2.15;;;6.20;98.00;;;;;;6241383;23;20068;-62
2024/01/15 10:55:15;;;;;;;5.10;2.13;;;6.20;98.00;;;;;;6248711;23;20465;-61
2024/01/15 10:58:03;;;;;;;2.55;2.05;;;6.20;98.00;;;;;;6256117;23;20004;-61
2024/01/15 11:00:49;;;;;;;4.43;1.90;;;6.20;98.00;;;;;;6244282;23;20429;-61
2024/01/15 11:03:36;;;;;;;6.75;1.92;;;6.20;98.00;;;;;;6241703;23;20425;-61
2024/01/15 11:06:24;;;;;;;4.13;1.75;;;6.20;97.90;;;;;;6240245;23;20035;-61
2024/01/15 11:09:10;;;;;;;8.07;2.03;;;6.20;97.80;;;;;;6241181;23;20034;-61
2024/01/15 11:12:13;;;;;;;4.20;2.05;;;6.20;97.70;;;;;;6240179;23;20019;-61
2024/01/15 11:15:09;;;;;;;5.13;1.88;;;6.20;97.80;;;;;;6240229;23;20012;-61
2024/01/15 11:17:59;;;;;;;;;;;6.30;97.90;;;;;;6241579;23;20396;-72
2024/01/15 11:21:14;;;;;;;3.45;1.55;;;6.30;97.90;;;;;;6239837;23;19906;-71
2024/01/15 11:24:02;;;;;;;4.65;1.92;;;6.20;97.70;;;;;;6240392;23;20138;-71
2024/01/15 11:26:47;;;;;;;3.38;1.70;;;6.20;97.60;;;;;;6241212;23;20392;-71
2024/01/15 11:29:37;;;;;;;1.33;0.95;;;6.20;97.60;;;;;;6240026;23;20027;-71
2024/01/15 11:32:33;;;;;;;3.20;1.70;;;6.20;97.70;;;;;;6241598;23;20008;-72
2024/01/15 11:35:19;;;;;;;3.65;1.48;;;6.30;97.80;;;;;;6242209;23;20017;-71
2024/01/15 11:38:06;;;;;;;5.28;1.27;;;6.20;97.80;;;;;;6243872;23;20012;-71
2024/01/15 11:40:52;;;;;;;2.53;1.40;;;6.20;97.80;;;;;;6241699;23;20012;-70
2024/01/15 11:43:38;;;;;;;4.15;1.50;;;6.10;97.80;;;;;;6241819;23;20519;-72
2024/01/15 11:46:30;;;;;;;4.20;1.80;;;6.10;97.80;;;;;;6241746;23;20440;-72
2024/01/15 11:49:45;;;;;;;3.00;1.40;;;6.20;97.80;;;;;;6241793;23;20012;-71
2024/01/15 11:52:36;;;;;;;2.65;1.50;;;6.10;97.80;;;;;;6241987;23;20012;-71
2024/01/15 11:55:34;;;;;;;4.82;1.60;;;6.10;97.90;;;;;;6243099;23;20096;-72
2024/01/15 11:58:20;;;;;;;4.13;1.50;;;6.10;97.90;;;;;;6243420;23;20008;-72
2024/01/15 12:01:06;;;;;;;4.50;1.67;;;6.00;98.00;;;;;;6241720;23;20014;-73
2024/01/15 12:03:52;;;;;;;4.22;2.35;;;5.90;98.00;;;;;;6242324;23;20016;-74
2024/01/15 12:06:39;;;;;;;2.05;1.65;;;5.80;98.10;;;;;;6243193;23;20008;-73
2024/01/15 12:09:27;;;;;;;2.05;1.50;;;5.70;98.20;;;;;;6242449;23;20023;-73
2024/01/15 12:12:25;;;;;;;5.20;1.35;;;5.60;98.30;;;;;;6221236;23;20014;-74
2024/01/15 12:15:11;;;;;;;2.05;1.33;;;5.60;98.50;;;;;;6242475;23;20019;-70
2024/01/15 12:17:58;;;;;;;2.33;1.48;;;5.60;98.50;;;;;;6240886;23;20010;-72
2024/01/15 12:20:46;;;;;;;2.55;1.40;;;5.50;98.60;;;;;;6243511;23;20090;-72
2024/01/15 12:23:33;;;;;;;2.47;1.70;;;5.50;98.60;;;;;;6242503;23;20340;-70
2024/01/15 12:26:19;;;;;;;3.08;1.63;;;5.40;98.80;;;;;;6240230;23;20480;-71
2024/01/15 12:29:10;;;;;;;2.33;1.48;;;5.40;98.80;;;;;;6241373;23;20444;-71
2024/01/15 12:31:55;;;;;;;2.42;1.45;;;5.30;98.90;;;;;;6243334;23;20019;-72
2024/01/15 12:34:43;;;;;;;2.85;1.92;;;5.40;99.00;;;;;;6240533;23;20013;-72
2024/01/15 12:37:29;;;;;;;4.22;1.80;;;5.30;98.90;;;;;;6241286;23;20344;-72
2024/01/15 12:40:19;;;;;;;3.03;1.50;;;5.30;98.90;;;;;;6241264;23;20015;-72
2024/01/15 12:43:08;;;;;;;2.10;1.45;;;5.30;98.90;;;;;;6241587;23;20075;-73
2024/01/15 12:45:54;;;;;;;3.30;1.75;;;5.30;98.90;;;;;;6241247;23;20023;-73
2024/01/15 12:48:40;;;;;;;2.53;1.52;;;5.40;98.90;;;;;;6240952;23;20020;-72
2024/01/15 12:51:27;;;;;;;2.13;1.42;;;5.40;99.00;;;;;;6243134;23;20723;-73
2024/01/15 12:54:13;;;;;;;3.60;2.17;;;5.30;99.00;;;;;;6241074;23;20015;-72
2024/01/15 12:56:59;;;;;;;3.85;1.55;;;5.20;99.20;;;;;;6241331;23;20330;-73
2024/01/15 12:59:45;;;;;;;2.50;1.80;;;5.10;99.30;;;;;;6242297;23;20031;-73
2024/01/15 13:02:31;;;;;;;2.75;1.60;;;5.10;99.40;;;;;;6241343;23;20520;-73
2024/01/15 13:05:17;;;;;;;2.20;1.50;;;5.10;99.50;;;;;;6241095;23;20402;-73
2024/01/15 13:08:04;;;;;;;3.55;1.60;;;5.00;99.50;;;;;;6220514;23;20019;-73
2024/01/15 13:10:51;;;;;;;2.60;1.50;;;5.10;99.60;;;;;;6241354;23;20012;-72
2024/01/15 13:13:37;;;;;;;2.40;1.50;;;5.10;99.70;;;;;;6241115;23;20038;-73
2024/01/15 13:16:26;;;;;;;4.05;1.88;;;5.10;99.60;;;;;;6241884;23;20011;-73
2024/01/15 13:19:13;;;;;;;3.13;1.70;;;5.10;99.60;;;;;;6240688;23;20230;-72
2024/01/15 13:22:00;;;;;;;7.45;1.80;;;5.10;99.80;;;;;;6242590;23;20364;-73
2024/01/15 13:24:45;;;;;;;3.05;1.58;;;5.10;99.70;;;;;;6241049;23;20012;-72
2024/01/15 13:27:31;;;;;;;3.25;1.95;;;5.20;99.70;;;;;;6241083;23;20098;-70
2024/01/15 13:30:17;;;;;;;4.18;1.83;;;5.20;99.70;;;;;;6240683;23;20020;-71
2024/01/15 13:33:04;;;;;;;4.63;1.80;;;5.20;99.70;;;;;;6240672;23;20012;-72
2024/01/15 13:35:50;;;;;;;2.33;1.45;;;5.20;99.70;;;;;;6240148;23;20323;-72
2024/01/15 13:38:38;;;;;;;4.68;1.77;;;5.20;99.70;;;;;;6240318;23;20008;-71
2024/01/15 13:41:27;;;;;;;3.83;1.50;;;5.20;99.60;;;;;;6241517;23;20016;-72
2024/01/15 13:44:13;;;;;;;2.20;1.70;;;5.10;99.60;;;;;;6241185;23;20468;-71
2024/01/15 13:46:59;;;;;;;3.60;1.65;;;5.10;99.60;;;;;;6241358;23;20547;-71
2024/01/15 13:49:45;;;;;;;5.13;2.30;;;5.10;99.70;;;;;;6240513;23;20428;-72
2024/01/15 13:52:30;;;;;;;4.15;1.98;;;5.10;99.80;;;;;;6239985;23;20004;-71
2024/01/15 13:55:16;;;;;;;3.55;1.73;;;5.10;99.80;;;;;;6240400;23;20094;-72
2024/01/15 13:58:05;;;;;;;2.80;1.50;;;5.10;99.90;;;;;;6241451;23;20008;-74
2024/01/15 14:00:52;;;;;;;2.75;1.90;;;5.00;99.90;;;;;;6240156;23;20032;-74
2024/01/15 14:03:38;;;;;;;4.88;1.45;;;5.10;99.90;;;;;;6241097;23;20004;-73
2024/01/15 14:06:24;;;;;;;3.92;1.92;;;5.10;99.90;;;;;;6240288;23;20016;-74
2024/01/15 14:09:10;;;;;;;3.30;1.75;;;5.00;99.90;;;;;;6257199;23;20016;-79
2024/01/15 14:11:58;;;;;;;4.72;1.85;;;5.10;99.80;;;;;;6265204;23;20062;-80
2024/01/15 14:14:43;;;;;;;4.10;1.70;;;5.10;99.70;;;;;;6269626;23;20000;-81
2024/01/15 14:17:29;;;;;;;3.95;1.80;;;5.10;99.70;;;;;;6267596;22;20031;-80
2024/01/15 14:20:15;;;;;;;4.10;2.33;;;5.00;99.50;;;;;;6244535;23;20012;-81
2024/01/15 14:23:01;;;;;;;3.72;1.85;;;5.00;99.50;;;;;;6240893;23;20190;-81
2024/01/15 14:25:47;;;;;;;4.35;2.13;;;5.00;99.50;;;;;;6240985;23;20052;-81
2024/01/15 14:28:33;;;;;;;3.45;1.70;;;4.90;99.50;;;;;;6234968;23;20100;-80
2024/01/15 14:31:20;;;;;;;3.70;1.75;;;4.90;99.50;;;;;;6211975;23;20015;-79
2024/01/15 14:34:07;;;;;;;2.30;1.45;;;4.90;99.50;;;;;;6211200;23;20071;-78
2024/01/15 14:36:56;;;;;;;3.15;1.60;;;4.90;99.50;;;;;;6209014;23;20079;-78
2024/01/15 14:39:42;;;;;;;3.17;1.67;;;4.90;99.50;;;;;;6211213;23;20348;-78
2024/01/15 14:42:28;;;;;;;2.15;1.35;;;4.90;99.50;;;;;;6210389;23;20380;-77
2024/01/15 14:45:14;;;;;;;3.40;1.50;;;4.80;99.40;;;;;;6212017;23;20342;-78
2024/01/15 14:48:00;;;;;;;3.85;1.60;;;4.80;99.40;;;;;;6210723;23;20056;-79
2024/01/15 14:50:46;;;;;;;9.25;3.22;;;4.80;99.30;;;;;;6209770;23;20378;-79
2024/01/15 14:53:32;;;;;;;2.92;1.38;;;4.70;99.30;;;;;;6211731;23;20099;-79
2024/01/15 14:56:18;;;;;;;4.43;1.50;;;4.70;99.30;;;;;;6211428;23;20504;-79
2024/01/15 14:59:04;;;;;;;4.25;1.80;;;4.80;99.30;;;;;;6209454;23;20047;-78
2024/01/15 15:01:50;;;;;;;2.97;1.65;;;4.70;99.30;;;;;;6210621;23;20009;-78
2024/01/15 15:04:36;;;;;;;4.35;2.70;;;4.70;99.10;;;;;;6207676;23;20008;-79
2024/01/15 15:07:22;;;;;;;2.85;1.35;;;4.60;99.10;;;;;;6212984;23;20032;-79
2024/01/15 15:10:10;;;;;;;2.33;1.40;;;4.50;99.20;;;;;;6212504;23;20004;-79
2024/01/15 15:12:56;;;;;;;4.63;1.77;;;4.60;99.30;;;;;;6216239;23;20044;-85
2024/01/15 15:15:42;;;;;;;4.80;1.70;;;4.60;99.20;;;;;;6212083;23;20476;-81
2024/01/15 15:18:30;;;;;;;3.63;2.10;;;4.50;99.30;;;;;;6213137;23;20063;-84
2024/01/15 15:21:16;;;;;;;3.97;2.10;;;4.50;99.30;;;;;;6211260;23;20079;-82
2024/01/15 15:24:02;;;;;;;4.85;2.47;;;4.50;99.30;;;;;;6210534;23;20016;-82
2024/01/15 15:26:48;;;;;;;3.90;1.88;;;4.50;99.30;;;;;;6213054;23;20429;-82
2024/01/15 15:29:37;;;;;;;4.35;1.77;;;4.40;99.30;;;;;;6212946;23;20346;-83
2024/01/15 15:32:23;;;;;;;4.60;2.03;;;4.50;99.40;;;;;;6212997;23;20091;-83
2024/01/15 15:35:10;;;;;;;7.70;2.83;;;4.50;99.30;;;;;;6211393;23;20074;-82
2024/01/15 15:37:56;;;;;;;5.78;1.90;;;4.50;99.40;;;;;;6211177;23;20008;-84
2024/01/15 15:40:41;;;;;;;3.03;1.88;;;4.50;99.40;;;;;;6213728;23;20050;-83
2024/01/15 15:43:28;;;;;;;5.28;2.10;;;4.50;99.40;;;;;;6209672;23;20020;-83
2024/01/15 15:46:16;;;;;;;8.30;3.03;;;4.50;99.50;;;;;;6209157;23;20009;-82
2024/01/15 15:49:06;;;;;;;5.70;2.13;;;4.40;99.60;;;;;;6208293;23;20039;-83
2024/01/15 15:51:52;;;;;;;7.93;2.67;;;4.50;99.70;;;;;;6208202;23;20012;-82
2024/01/15 15:54:38;;;;;;;4.63;2.28;;;4.50;99.80;;;;;;6211955;23;20031;-81
2024/01/15 15:57:26;;;;;;;6.38;2.20;;;4.50;99.80;;;;;;6213073;23;20449;-80
2024/01/15 16:00:12;;;;;;;6.38;2.72;;;4.50;99.80;;;;;;6210545;23;20593;-79
2024/01/15 16:02:58;;;;;;;4.72;2.42;;;4.40;99.90;;;;;;6210628;23;20454;-80
2024/01/15 16:05:44;;;;;;;4.15;2.53;;;4.40;99.90;;;;;;6211630;23;20009;-80
2024/01/15 16:08:31;;;;;;;4.82;2.47;;;4.40;99.90;;;;;;6209204;23;20327;-80
2024/01/15 16:11:17;;;;;;;4.55;2.53;;;4.40;99.90;;;;;;6209989;23;20091;-80
2024/01/15 16:14:04;;;;;;;4.93;2.47;;;4.40;99.90;;;;;;6210653;23;20020;-80
2024/01/15 16:16:50;;;;;;;3.92;2.30;;;4.50;99.90;;;;;;6212724;23;20452;-81
2024/01/15 16:19:37;;;;;;;3.67;1.83;;;4.50;99.90;;;;;;6190785;23;20016;-81
2024/01/15 16:22:22;;;;;;;4.18;2.20;;;4.50;99.90;;;;;;6210549;23;20009;-80
2024/01/15 16:25:09;;;;;;;5.03;1.85;;;4.50;99.90;;;;;;6210987;23;20016;-80
2024/01/15 16:27:55;;;;;;;4.45;2.63;;;4.50;99.90;;;;;;6211833;23;20103;-81
2024/01/15 16:30:41;;;;;;;3.55;1.88;;;4.40;99.90;;;;;;6213128;23;20016;-79
2024/01/15 16:33:27;;;;;;;6.50;2.88;;;4.40;99.90;;;;;;6211952;23;20020;-81
2024/01/15 16:36:13;;;;;;;3.42;2.00;;;4.40;99.90;;;;;;6188734;23;20016;-79
2024/01/15 16:38:59;;;;;;;4.43;2.65;;;4.30;99.90;;;;;;6211631;23;20071;-81
2024/01/15 16:41:45;;;;;;;3.40;1.95;;;4.30;99.90;;;;;;6211708;23;20009;-80
2024/01/15 16:44:30;;;;;;;7.50;3.10;;;4.30;99.90;;;;;;6212791;23;20015;-78
2024/01/15 16:47:16;;;;;;;3.40;2.45;;;4.30;99.90;;;;;;6210912;23;20021;-79
2024/01/15 16:50:03;;;;;;;5.75;2.47;;;4.30;99.90;;;;;;6209983;23;20009;-79
2024/01/15 16:52:49;;;;;;;4.20;2.40;;;4.30;99.90;;;;;;6210131;23;20009;-81
2024/01/15 16:55:35;;;;;;;8.82;2.50;;;4.30;99.90;;;;;;6210328;23;20020;-80
2024/01/15 16:58:21;;;;;;;5.78;2.63;;;4.20;99.90;;;;;;6210717;23;20382;-82
2024/01/15 17:01:07;;;;;;;5.78;2.72;;;4.30;99.90;;;;;;6209236;23;20087;-81
2024/01/15 17:03:53;;;;;;;4.72;2.30;;;4.20;99.90;;;;;;6210165;23;20019;-82
2024/01/15 17:06:39;;;;;;;4.13;2.22;;;4.30;99.90;;;;;;6210525;23;20071;-84
2024/01/15 17:09:25;;;;;;;3.58;2.65;;;4.20;99.90;;;;;;6209980;23;20152;-83
2024/01/15 17:12:11;;;;;;;6.45;2.50;;;4.20;99.90;;;;;;6211365;23;20012;-86
2024/01/15 17:14:57;;;;;;;4.97;2.65;;;4.20;99.90;;;;;;6212449;23;20008;-85
2024/01/15 17:17:43;;;;;;;5.93;3.30;;;4.10;99.90;;;;;;6210414;23;20008;-84
2024/01/15 17:20:29;;;;;;;6.80;3.90;;;4.10;99.90;;;;;;6210236;23;20160;-81
2024/01/15 17:23:15;;;;;;;7.22;2.58;;;4.10;99.90;;;;;;6210461;23;20579;-83
2024/01/15 17:26:02;;;;;;;4.97;2.70;;;4.10;99.90;;;;;;6210572;23;20055;-83
2024/01/15 17:28:48;;;;;;;4.45;2.58;;;4.00;99.90;;;;;;6210311;23;20020;-83
2024/01/15 17:31:34;;;;;;;3.72;2.42;;;4.00;99.90;;;;;;6212816;23;20008;-79
2024/01/15 17:34:20;;;;;;;4.75;2.72;;;4.10;99.90;;;;;;6223948;23;20023;-83
2024/01/15 17:37:06;;;;;;;5.28;2.53;;;4.00;99.90;;;;;;6240423;23;20003;-84
2024/01/15 17:39:52;;;;;;;3.63;2.25;;;4.10;99.90;;;;;;6239935;23;20031;-80
2024/01/15 17:42:38;;;;;;;5.38;2.40;;;4.10;99.90;;;;;;6241362;23;19997;-80
2024/01/15 17:45:26;;;;;;;6.32;2.80;;;4.10;99.90;;;;;;6242541;23;20023;-84
2024/01/15 17:48:12;;;;;;;4.15;2.30;;;4.10;99.90;;;;;;6220431;23;20056;-82
2024/01/15 17:50:59;;;;;;;4.63;2.65;;;4.10;99.90;;;;;;6197963;23;20004;-83
2024/01/15 17:53:45;;;;;;;3.78;2.70;;;4.10;99.90;;;;;;6216496;23;20009;-82
2024/01/15 17:56:31;;;;;;;6.07;3.10;;;4.20;99.90;;;;;;6212061;23;20087;-83
2024/01/15 17:59:17;;;;;;;6.50;3.05;;;4.10;99.90;;;;;;6213874;23;20013;-82
2024/01/15 18:02:03;;;;;;;5.65;3.05;;;4.10;99.90;;;;;;6214708;23;20091;-83
2024/01/15 18:04:49;;;;;;;6.53;4.13;;;4.10;99.90;;;;;;6213703;23;20019;-76
2024/01/15 18:07:35;;;;;;;5.70;3.80;;;4.20;99.90;;;;;;6212526;23;20020;-81
2024/01/15 18:10:22;;;;;;;4.90;2.80;;;4.20;99.90;;;;;;6189005;23;20560;-80
2024/01/15 18:13:08;;;;;;;5.00;3.33;;;4.30;99.90;;;;;;6211997;23;20016;-82
2024/01/15 18:15:57;;;;;;;4.47;2.83;;;4.30;99.90;;;;;;6190680;23;20013;-81
2024/01/15 18:18:44;;;;;;;5.15;2.72;;;4.30;99.90;;;;;;6216919;23;20016;-81
2024/01/15 18:21:31;;;;;;;5.90;2.88;;;4.30;99.90;;;;;;6217308;23;20012;-78
2024/01/15 18:24:17;;;;;;;4.35;2.75;;;4.30;99.90;;;;;;6212633;23;20043;-78
2024/01/15 18:27:04;;;;;;;4.75;3.13;;;4.30;99.90;;;;;;6219152;23;20019;-81
2024/01/15 18:29:49;;;;;;;3.50;2.40;;;4.20;99.90;;;;;;6205743;23;20044;-82
2024/01/15 18:32:35;;;;;;;4.88;2.70;;;4.10;99.90;;;;;;6215707;23;20035;-80
2024/01/15 18:35:23;;;;;;;5.97;2.55;;;4.10;99.90;;;;;;6214829;23;20008;-82
2024/01/15 18:38:09;;;;;;;4.43;3.33;;;4.10;99.90;;;;;;6210197;23;20441;-81
2024/01/15 18:40:55;;;;;;;6.53;3.45;;;4.10;99.90;;;;;;6211229;23;20016;-80
2024/01/15 18:43:41;;;;;;;8.07;3.42;;;4.00;99.90;;;;;;6222165;23;20004;-80
2024/01/15 18:46:27;;;;;;;9.52;3.78;;;4.00;99.90;;;;;;6220973;23;20016;-80
2024/01/15 18:49:14;;;;;;;10.27;3.80;;;4.00;99.90;;;;;;6220875;23;20588;-79
2024/01/15 18:52:00;;;;;;;8.63;3.90;;;4.00;99.90;;;;;;6223913;23;20016;-80
2024/01/15 18:54:46;;;;;;;8.43;3.55;;;3.90;99.90;;;;;;6214096;23;20009;-80
2024/01/15 18:57:32;;;;;;;9.38;3.33;;;3.80;99.90;;;;;;6218155;23;20009;-79
2024/01/15 19:00:20;;;;;;;8.77;4.22;;;3.80;99.90;;;;;;6225253;23;20009;-78
2024/01/15 19:03:06;;;;;;;7.10;4.13;;;3.70;99.80;;;;;;6225976;23;20624;-80
2024/01/15 19:05:52;;;;;;;10.02;4.50;;;3.70;99.80;;;;;;6224787;23;20013;-79
2024/01/15 19:08:38;;;;;;;10.73;4.07;;;3.70;99.80;;;;;;6221602;23;20016;-79
2024/01/15 19:11:25;;;;;;;7.68;3.15;;;3.70;99.70;;;;;;6214488;23;20024;-78
2024/01/15 19:14:11;;;;;;;10.65;4.03;;;3.70;99.50;;;;;;6214144;23;20016;-77
2024/01/15 19:16:58;;;;;;;9.27;4.10;;;3.60;99.20;;;;;;6216013;23;20005;-78
2024/01/15 19:19:49;;;;;;;6.45;3.80;;;3.60;99.20;;;;;;6215879;23;20012;-79
2024/01/15 19:22:35;;;;;;;4.63;2.92;;;3.50;98.70;;;;;;6217865;23;20108;-78
2024/01/15 19:25:21;;;;;;;7.97;3.55;;;3.50;99.00;;;;;;6214742;23;20013;-78
2024/01/15 19:28:07;;;;;;;7.75;3.95;;;3.50;99.00;;;;;;6212478;23;20016;-78
2024/01/15 19:30:53;;;;;;;9.73;4.43;;;3.50;98.90;;;;;;6216392;23;20016;-77
2024/01/15 19:33:39;;;;;;;9.80;4.88;;;3.60;98.90;;;;;;6215550;23;20036;-79
2024/01/15 19:36:28;;;;;;;9.68;4.95;;;3.60;98.80;;;;;;6214255;23;20005;-79
2024/01/15 19:39:14;;;;;;;9.40;4.18;;;3.60;98.40;;;;;;6200560;23;20412;-79
2024/01/15 19:42:00;;;;;;;7.35;3.28;;;3.60;98.70;;;;;;6219475;23;20366;-79
2024/01/15 19:44:46;;;;;;;7.93;3.30;;;3.60;98.60;;;;;;6225099;23;20345;-79
2024/01/15 19:47:32;;;;;;;6.75;3.13;;;3.60;98.40;;;;;;6212583;23;20107;-79
2024/01/15 19:50:18;;;;;;;9.02;4.03;;;3.70;98.50;;;;;;6218501;23;20492;-78
2024/01/15 19:53:05;;;;;;;8.32;3.75;;;3.70;98.30;;;;;;6213253;23;20499;-79
2024/01/15 19:55:51;;;;;;;5.88;2.55;;;3.80;98.30;;;;;;6210490;23;20393;-78
2024/01/15 19:58:36;;;;;;;4.72;2.58;;;3.80;97.90;;;;;;6211947;23;20026;-77
2024/01/15 20:01:25;;;;;;;4.50;2.03;;;3.70;97.70;;;;;;6211449;23;20051;-78
2024/01/15 20:04:11;;;;;;;3.97;2.35;;;3.70;97.80;;;;;;6209846;23;20012;-78
2024/01/15 20:06:57;;;;;;;5.65;2.85;;;3.80;97.90;;;;;;6211691;23;20446;-77
2024/01/15 20:09:44;;;;;;;4.63;2.40;;;3.70;97.50;;;;;;6210399;23;20017;-80
2024/01/15 20:12:30;;;;;;;3.65;1.70;;;3.70;97.70;;;;;;6213113;23;20009;-82
2024/01/15 20:15:18;;;;;;;3.38;2.00;;;3.60;97.50;;;;;;6211179;23;20005;-81
2024/01/15 20:18:04;;;;;;;4.00;2.38;;;3.60;97.50;;;;;;6191425;23;20087;-82
2024/01/15 20:20:50;;;;;;;5.13;2.10;;;3.60;97.40;;;;;;6189999;23;20070;-78
2024/01/15 20:23:37;;;;;;;4.70;2.65;;;3.70;97.40;;;;;;6210024;23;20008;-74
2024/01/15 20:26:24;;;;;;;5.78;2.88;;;3.60;97.30;;;;;;6185727;23;20107;-69
2024/01/15 20:29:10;;;;;;;7.75;3.67;;;3.50;97.10;;;;;;6187835;23;20024;-70
2024/01/15 20:31:56;;;;;;;10.48;3.60;;;3.40;97.10;;;;;;6190400;23;20013;-71
2024/01/15 20:34:45;;;;;;;7.35;3.45;;;3.40;96.90;;;;;;6213281;23;20096;-75
2024/01/15 20:37:31;;;;;;;5.35;3.38;;;3.30;97.00;;;;;;6210826;23;20009;-73
2024/01/15 20:40:17;;;;;;;4.40;2.30;;;3.30;97.00;;;;;;6210693;23;20008;-72
2024/01/15 20:43:04;;;;;;;6.30;2.42;;;3.30;96.80;;;;;;6209906;23;20096;-71
2024/01/15 20:45:50;;;;;;;5.78;2.80;;;3.20;96.80;;;;;;6210778;23;20009;-74
2024/01/15 20:48:36;;;;;;;6.43;2.63;;;3.20;96.90;;;;;;6210234;23;20024;-73
2024/01/15 20:51:22;;;;;;;7.07;2.33;;;3.20;97.10;;;;;;6211030;23;20005;-73
2024/01/15 20:54:08;;;;;;;4.40;2.20;;;3.20;97.00;;;;;;6211513;23;20082;-75
2024/01/15 20:56:53;;;;;;;4.07;2.15;;;3.20;97.00;;;;;;6213157;23;20434;-74
2024/01/15 20:59:39;;;;;;;9.82;2.92;;;3.20;97.10;;;;;;6212434;23;20449;-73
2024/01/15 21:02:25;;;;;;;7.47;2.78;;;3.20;97.10;;;;;;6210315;23;20028;-73
2024/01/15 21:05:11;;;;;;;5.50;2.47;;;3.20;96.90;;;;;;6212984;23;20008;-76
2024/01/15 21:07:57;;;;;;;4.85;2.70;;;3.20;97.00;;;;;;6212185;23;20051;-75